Time;durP1;ratioP1;P1;durP2;ratioP2;P2;SDS_P1;SDS_P2;PMS_P1;PMS_P2;Temp;Humidity;BMP_temperature;BMP_pressure;BME280_temperature;BME280_humidity;BME280_pressure;Samples;Min_cycle;Max_cycle;Signal;HPM_P1;HPM_P2
2022/06/23 00:01:41;;;;;;;6.88;3.28;;;;;;;;;;5092563;28;20521;-67
2022/06/23 00:04:11;;;;;;;3.85;2.53;;;;;;;;;;5096001;28;20043;-66
2022/06/23 00:06:37;;;;;;;4.35;2.80;;;;;;;;;;5089990;28;20040;-66
2022/06/23 00:09:23;;;;;;;3.75;2.50;;;;;;;;;;5086917;28;20127;-67
2022/06/23 00:11:49;;;;;;;3.35;2.42;;;;;;;;;;5081421;28;20040;-66
2022/06/23 00:14:16;;;;;;;5.43;3.67;;;;;;;;;;5096816;28;20559;-66
2022/06/23 00:16:44;;;;;;;4.93;3.80;;;;;;;;;;5091026;28;20147;-67
2022/06/23 00:19:14;;;;;;;4.38;2.78;;;;;;;;;;5092237;28;20098;-66
2022/06/23 00:21:43;;;;;;;4.38;3.40;;;;;;;;;;5104158;28;20387;-66
2022/06/23 00:24:15;;;;;;;4.93;3.55;;;;;;;;;;5084210;28;20067;-66
2022/06/23 00:26:41;;;;;;;4.78;3.22;;;;;;;;;;5086289;28;20092;-66
2022/06/23 00:29:13;;;;;;;5.03;3.13;;;;;;;;;;5071443;28;20772;-66
2022/06/23 00:31:47;;;;;;;5.10;3.42;;;;;;;;;;5089311;28;20972;-67
2022/06/23 00:34:39;;;;;;;5.72;4.47;;;;;;;;;;5092299;28;20490;-66
2022/06/23 00:37:11;;;;;;;4.55;3.20;;;;;;;;;;5078682;28;20130;-66
2022/06/23 00:39:37;;;;;;;5.25;3.58;;;;;;;;;;5091699;28;20043;-66
2022/06/23 00:42:05;;;;;;;4.75;3.67;;;;;;;;;;5088338;28;20064;-65
2022/06/23 00:44:41;;;;;;;4.65;3.58;;;;;;;;;;5101709;28;20513;-65
2022/06/23 00:47:13;;;;;;;5.38;3.58;;;;;;;;;;5089350;28;20048;-66
2022/06/23 00:49:39;;;;;;;9.38;4.25;;;;;;;;;;5094763;28;20043;-66
2022/06/23 00:52:31;;;;;;;5.70;3.97;;;;;;;;;;5095130;28;20039;-66
2022/06/23 00:54:59;;;;;;;6.15;3.78;;;;;;;;;;5076758;28;20210;-65
2022/06/23 00:57:28;;;;;;;5.28;3.83;;;;;;;;;;5092119;28;20063;-66
2022/06/23 00:59:57;;;;;;;6.45;4.90;;;;;;;;;;5094959;28;20393;-66
2022/06/23 01:02:26;;;;;;;8.15;6.13;;;;;;;;;;5096748;28;20036;-66
2022/06/23 01:04:54;;;;;;;8.68;5.60;;;;;;;;;;5098619;27;20092;-66
2022/06/23 01:07:29;;;;;;;7.53;5.47;;;;;;;;;;5076423;28;20036;-66
2022/06/23 01:09:58;;;;;;;8.65;5.05;;;;;;;;;;5075504;28;20048;-65
2022/06/23 01:12:35;;;;;;;7.53;5.13;;;;;;;;;;5079362;28;20031;-65
2022/06/23 01:15:13;;;;;;;6.07;4.10;;;;;;;;;;5092119;28;20047;-66
2022/06/23 01:17:52;;;;;;;7.43;4.82;;;;;;;;;;5093480;28;20040;-66
2022/06/23 01:20:29;;;;;;;5.82;4.55;;;;;;;;;;5093818;28;20036;-66
2022/06/23 01:22:58;;;;;;;7.65;5.97;;;;;;;;;;5089812;28;20033;-66
2022/06/23 01:25:24;;;;;;;6.53;5.00;;;;;;;;;;5096000;28;20114;-66
2022/06/23 01:27:50;;;;;;;9.20;5.32;;;;;;;;;;5087829;28;20039;-66
2022/06/23 01:30:19;;;;;;;7.50;5.28;;;;;;;;;;5091739;28;20046;-66
2022/06/23 01:33:11;;;;;;;8.15;5.53;;;;;;;;;;5086340;28;20414;-65
2022/06/23 01:35:41;;;;;;;8.13;5.47;;;;;;;;;;5069433;28;20129;-66
2022/06/23 01:38:14;;;;;;;9.00;5.60;;;;;;;;;;5099244;27;20035;-66
2022/06/23 01:40:44;;;;;;;7.65;5.03;;;;;;;;;;5089399;28;20641;-66
2022/06/23 01:43:19;;;;;;;8.50;6.22;;;;;;;;;;5086580;28;20043;-66
2022/06/23 01:45:52;;;;;;;8.05;5.25;;;;;;;;;;5088276;28;20033;-66
2022/06/23 01:48:53;;;;;;;7.97;6.40;;;;;;;;;;5092467;28;20046;-66
2022/06/23 01:51:31;;;;;;;8.57;6.47;;;;;;;;;;5094148;28;20752;-66
2022/06/23 01:54:09;;;;;;;8.60;6.15;;;;;;;;;;5080962;28;20047;-67
2022/06/23 01:56:42;;;;;;;8.73;7.05;;;;;;;;;;5078727;28;20059;-66
2022/06/23 01:59:20;;;;;;;14.68;7.00;;;;;;;;;;5079165;28;20085;-66
2022/06/23 02:01:46;;;;;;;9.30;6.57;;;;;;;;;;5090651;28;20176;-66
2022/06/23 02:04:18;;;;;;;7.15;5.75;;;;;;;;;;5090218;28;20037;-66
2022/06/23 02:06:48;;;;;;;6.68;5.35;;;;;;;;;;5090725;28;20024;-66
2022/06/23 02:09:22;;;;;;;8.50;5.72;;;;;;;;;;5084401;28;20040;-66
2022/06/23 02:11:50;;;;;;;10.73;6.93;;;;;;;;;;5080661;28;20127;-66
2022/06/23 02:14:23;;;;;;;8.18;5.40;;;;;;;;;;5076475;28;20075;-66
2022/06/23 02:16:56;;;;;;;12.68;6.68;;;;;;;;;;5084696;28;20040;-66
2022/06/23 02:19:34;;;;;;;11.55;7.47;;;;;;;;;;5084936;28;20628;-66
2022/06/23 02:22:06;;;;;;;11.07;6.40;;;;;;;;;;5089407;28;20036;-66
2022/06/23 02:24:38;;;;;;;8.70;6.83;;;;;;;;;;5091578;28;20032;-66
2022/06/23 02:27:07;;;;;;;8.95;6.65;;;;;;;;;;5095050;28;20054;-66
2022/06/23 02:29:36;;;;;;;8.77;6.75;;;;;;;;;;5089764;28;20033;-66
2022/06/23 02:32:05;;;;;;;10.18;6.35;;;;;;;;;;5085901;28;20122;-66
2022/06/23 02:34:37;;;;;;;9.10;6.68;;;;;;;;;;5086638;28;20131;-65
2022/06/23 02:37:26;;;;;;;9.60;6.55;;;;;;;;;;5084646;28;20043;-66
2022/06/23 02:39:54;;;;;;;10.63;6.20;;;;;;;;;;5080092;28;20071;-65
2022/06/23 02:42:29;;;;;;;8.93;6.20;;;;;;;;;;5082938;28;20436;-66
2022/06/23 02:45:04;;;;;;;13.23;7.05;;;;;;;;;;5074755;28;20067;-65
2022/06/23 02:47:30;;;;;;;10.10;6.35;;;;;;;;;;5090212;28;20512;-66
2022/06/23 02:50:32;;;;;;;10.50;7.40;;;;;;;;;;5084982;28;20044;-66
2022/06/23 02:53:10;;;;;;;9.32;6.70;;;;;;;;;;5047264;28;20078;-65
2022/06/23 02:55:39;;;;;;;11.35;7.05;;;;;;;;;;5065256;28;20493;-65
2022/06/23 02:58:10;;;;;;;8.63;6.60;;;;;;;;;;5098360;28;20052;-65
2022/06/23 03:00:45;;;;;;;9.18;6.20;;;;;;;;;;5094557;28;20408;-65
2022/06/23 03:03:17;;;;;;;9.65;7.05;;;;;;;;;;5089851;28;20036;-65
2022/06/23 03:06:02;;;;;;;9.20;6.93;;;;;;;;;;5081723;28;20047;-65
2022/06/23 03:08:49;;;;;;;11.77;8.32;;;;;;;;;;5092448;28;20269;-66
2022/06/23 03:11:15;;;;;;;7.28;5.90;;;;;;;;;;5104432;28;20043;-66
2022/06/23 03:13:41;;;;;;;11.27;7.85;;;;;;;;;;5093954;28;20279;-66
2022/06/23 03:16:23;;;;;;;11.02;6.60;;;;;;;;;;5091361;28;20044;-66
2022/06/23 03:18:55;;;;;;;10.68;6.97;;;;;;;;;;5087445;28;20084;-67
2022/06/23 03:21:27;;;;;;;9.20;6.53;;;;;;;;;;5087074;28;20086;-67
2022/06/23 03:24:04;;;;;;;8.65;6.72;;;;;;;;;;5098568;28;20474;-66
2022/06/23 03:26:39;;;;;;;10.55;7.32;;;;;;;;;;5090645;28;20036;-66
2022/06/23 03:29:12;;;;;;;10.20;7.50;;;;;;;;;;5081309;28;20415;-66
2022/06/23 03:31:40;;;;;;;10.73;7.35;;;;;;;;;;5076804;28;20324;-66
2022/06/23 03:34:26;;;;;;;11.88;7.38;;;;;;;;;;5077994;28;20035;-66
2022/06/23 03:36:58;;;;;;;9.05;7.80;;;;;;;;;;5082039;28;20104;-65
2022/06/23 03:42:28;;;;;;;10.23;7.85;;;;;;;;;;5086396;28;20485;-66
2022/06/23 03:44:56;;;;;;;11.18;7.43;;;;;;;;;;5091194;28;20062;-66
2022/06/23 03:47:27;;;;;;;8.20;6.50;;;;;;;;;;5076703;28;20502;-66
2022/06/23 03:49:59;;;;;;;11.02;7.75;;;;;;;;;;5091832;28;20043;-66
2022/06/23 03:52:55;;;;;;;9.95;7.18;;;;;;;;;;5099575;28;20554;-66
2022/06/23 03:55:23;;;;;;;9.75;7.07;;;;;;;;;;5050864;28;20049;-67
2022/06/23 03:57:53;;;;;;;9.27;6.80;;;;;;;;;;5087355;28;20051;-66
2022/06/23 04:00:29;;;;;;;11.48;7.32;;;;;;;;;;5078338;28;20051;-66
2022/06/23 04:03:33;;;;;;;10.07;6.78;;;;;;;;;;5083399;28;20047;-66
2022/06/23 04:06:09;;;;;;;10.00;6.97;;;;;;;;;;5037569;28;20052;-66
2022/06/23 04:08:41;;;;;;;8.48;6.68;;;;;;;;;;5048139;28;20043;-66
2022/06/23 04:14:01;;;;;;;10.18;6.53;;;;;;;;;;5086611;28;20040;-66
2022/06/23 04:16:31;;;;;;;10.55;7.40;;;;;;;;;;5098894;28;20041;-66
2022/06/23 04:18:58;;;;;;;11.32;6.43;;;;;;;;;;5096460;28;20497;-66
2022/06/23 04:21:27;;;;;;;8.52;6.90;;;;;;;;;;5086928;28;20051;-66
2022/06/23 04:23:55;;;;;;;9.82;7.20;;;;;;;;;;5091903;28;20044;-66
2022/06/23 04:26:23;;;;;;;10.27;6.70;;;;;;;;;;5079659;28;20052;-66
2022/06/23 04:29:00;;;;;;;15.23;6.75;;;;;;;;;;5089929;28;20085;-66
2022/06/23 04:31:27;;;;;;;9.15;6.53;;;;;;;;;;5100098;28;20075;-66
2022/06/23 04:33:54;;;;;;;12.38;7.63;;;;;;;;;;5065867;28;20057;-66
2022/06/23 04:36:22;;;;;;;11.75;7.30;;;;;;;;;;5065338;28;20129;-66
2022/06/23 04:38:51;;;;;;;9.73;6.93;;;;;;;;;;5088630;28;20518;-66
2022/06/23 04:41:19;;;;;;;15.30;7.93;;;;;;;;;;5080516;28;20051;-66
2022/06/23 04:43:53;;;;;;;12.57;7.40;;;;;;;;;;5095840;28;20115;-67
2022/06/23 04:46:30;;;;;;;9.25;6.43;;;;;;;;;;5099842;28;20036;-66
2022/06/23 04:49:18;;;;;;;11.05;7.55;;;;;;;;;;5084585;28;20069;-67
2022/06/23 04:52:07;;;;;;;11.85;6.47;;;;;;;;;;5065364;28;20088;-66
2022/06/23 04:54:36;;;;;;;10.30;7.13;;;;;;;;;;5074146;28;20048;-66
2022/06/23 04:57:05;;;;;;;11.20;7.50;;;;;;;;;;5105420;28;20039;-66
2022/06/23 04:59:44;;;;;;;10.32;7.88;;;;;;;;;;5087658;28;20048;-66
2022/06/23 05:02:26;;;;;;;9.77;6.82;;;;;;;;;;5094355;28;20490;-66
2022/06/23 05:05:01;;;;;;;8.68;6.88;;;;;;;;;;5091065;28;20110;-66
2022/06/23 05:07:27;;;;;;;10.45;7.55;;;;;;;;;;5087355;28;20051;-66
2022/06/23 05:09:56;;;;;;;9.25;6.88;;;;;;;;;;5095978;28;20119;-66
2022/06/23 05:12:34;;;;;;;11.35;7.18;;;;;;;;;;5101056;28;20040;-67
2022/06/23 05:15:07;;;;;;;9.65;6.72;;;;;;;;;;5090481;28;20036;-66
2022/06/23 05:17:35;;;;;;;9.30;7.53;;;;;;;;;;5087572;28;20044;-66
2022/06/23 05:20:06;;;;;;;11.50;7.28;;;;;;;;;;5086556;28;20040;-66
2022/06/23 05:22:39;;;;;;;11.65;7.93;;;;;;;;;;5086339;28;20128;-66
2022/06/23 05:25:24;;;;;;;10.25;7.70;;;;;;;;;;5092995;28;20025;-66
2022/06/23 05:27:51;;;;;;;11.82;7.55;;;;;;;;;;5089839;28;20090;-66
2022/06/23 05:30:26;;;;;;;14.30;7.53;;;;;;;;;;5097833;28;20126;-67
2022/06/23 05:33:01;;;;;;;11.25;6.78;;;;;;;;;;5069564;28;20060;-67
2022/06/23 05:35:38;;;;;;;9.02;6.18;;;;;;;;;;5080186;28;20035;-67
2022/06/23 05:38:09;;;;;;;12.13;7.55;;;;;;;;;;5072423;28;20121;-66
2022/06/23 05:40:36;;;;;;;10.77;6.95;;;;;;;;;;5086941;28;20450;-66
2022/06/23 05:43:02;;;;;;;12.70;7.50;;;;;;;;;;5095527;28;20047;-67
2022/06/23 05:45:30;;;;;;;13.00;8.50;;;;;;;;;;5086292;28;20052;-66
2022/06/23 05:47:57;;;;;;;9.75;7.63;;;;;;;;;;5091616;28;20044;-66
2022/06/23 05:50:36;;;;;;;12.23;7.75;;;;;;;;;;5082024;28;20582;-66
2022/06/23 05:53:06;;;;;;;12.20;7.50;;;;;;;;;;5097822;28;20419;-66
2022/06/23 05:55:47;;;;;;;11.55;8.23;;;;;;;;;;5086556;28;20032;-66
2022/06/23 05:58:13;;;;;;;9.95;7.68;;;;;;;;;;5092951;28;20052;-66
2022/06/23 06:00:49;;;;;;;9.98;7.95;;;;;;;;;;5077506;28;20037;-66
2022/06/23 06:03:20;;;;;;;10.10;7.72;;;;;;;;;;5075176;28;20041;-67
2022/06/23 06:05:48;;;;;;;13.85;9.00;;;;;;;;;;5078762;28;20134;-66
2022/06/23 06:08:18;;;;;;;11.30;7.38;;;;;;;;;;5091141;28;20082;-67
2022/06/23 06:10:44;;;;;;;9.93;7.68;;;;;;;;;;5084515;28;20067;-67
2022/06/23 06:13:16;;;;;;;12.18;8.02;;;;;;;;;;5092343;28;20295;-67
2022/06/23 06:15:45;;;;;;;10.02;7.35;;;;;;;;;;5074361;28;20411;-67
2022/06/23 06:18:14;;;;;;;10.07;6.90;;;;;;;;;;5090346;28;20453;-66
2022/06/23 06:20:40;;;;;;;10.77;7.05;;;;;;;;;;5085628;28;20397;-66
2022/06/23 06:23:09;;;;;;;12.18;7.20;;;;;;;;;;5081077;28;20544;-66
2022/06/23 06:25:38;;;;;;;10.70;8.32;;;;;;;;;;5085771;28;20040;-66
2022/06/23 06:28:14;;;;;;;14.55;8.63;;;;;;;;;;5088151;28;20073;-67
2022/06/23 06:30:41;;;;;;;12.90;7.45;;;;;;;;;;5090551;28;20039;-67
2022/06/23 06:33:15;;;;;;;10.68;8.15;;;;;;;;;;5088759;28;20115;-66
2022/06/23 06:35:42;;;;;;;14.48;8.25;;;;;;;;;;5090770;28;20119;-66
2022/06/23 06:38:12;;;;;;;11.60;8.55;;;;;;;;;;5087099;28;20402;-66
2022/06/23 06:40:39;;;;;;;12.98;7.30;;;;;;;;;;5091312;28;20028;-66
2022/06/23 06:43:07;;;;;;;12.07;7.57;;;;;;;;;;5092301;28;20123;-66
2022/06/23 06:45:34;;;;;;;10.10;7.68;;;;;;;;;;5105523;28;20483;-67
2022/06/23 06:48:02;;;;;;;15.50;9.07;;;;;;;;;;5091599;28;20114;-66
2022/06/23 06:50:46;;;;;;;9.82;7.53;;;;;;;;;;5076396;28;20052;-67
2022/06/23 06:53:22;;;;;;;11.45;9.18;;;;;;;;;;5081982;28;20043;-66
2022/06/23 06:55:51;;;;;;;13.75;8.60;;;;;;;;;;5083587;28;20039;-66
2022/06/23 06:58:26;;;;;;;12.82;7.82;;;;;;;;;;5085750;28;20048;-66
2022/06/23 07:00:57;;;;;;;11.27;8.50;;;;;;;;;;5100525;28;20382;-66
2022/06/23 07:03:25;;;;;;;9.98;7.70;;;;;;;;;;5083033;28;20060;-66
2022/06/23 07:05:55;;;;;;;16.88;7.95;;;;;;;;;;5084473;28;20044;-66
2022/06/23 07:08:21;;;;;;;12.73;8.90;;;;;;;;;;5104312;28;20074;-66
2022/06/23 07:10:50;;;;;;;11.05;7.43;;;;;;;;;;5103464;28;20044;-66
2022/06/23 07:13:25;;;;;;;9.85;7.55;;;;;;;;;;5081816;28;20074;-67
2022/06/23 07:15:54;;;;;;;14.38;9.40;;;;;;;;;;5082141;28;20033;-66
2022/06/23 07:18:20;;;;;;;13.88;8.38;;;;;;;;;;5086496;28;20036;-66
2022/06/23 07:21:09;;;;;;;13.02;7.88;;;;;;;;;;5070022;28;20498;-66
2022/06/23 07:23:43;;;;;;;11.05;8.63;;;;;;;;;;5066055;28;20272;-66
2022/06/23 07:26:22;;;;;;;11.60;9.15;;;;;;;;;;5081415;28;20046;-66
2022/06/23 07:28:51;;;;;;;11.13;7.25;;;;;;;;;;5089535;28;20048;-67
2022/06/23 07:31:19;;;;;;;9.77;7.78;;;;;;;;;;5091018;28;20048;-66
2022/06/23 07:33:50;;;;;;;9.32;7.22;;;;;;;;;;5086301;28;20105;-66
2022/06/23 07:36:37;;;;;;;13.23;7.75;;;;;;;;;;5093551;28;20047;-67
2022/06/23 07:39:03;;;;;;;13.48;9.55;;;;;;;;;;5097904;28;20047;-66
2022/06/23 07:41:33;;;;;;;9.68;8.20;;;;;;;;;;5092393;28;20401;-66
2022/06/23 07:44:02;;;;;;;14.48;8.10;;;;;;;;;;5090954;28;20028;-66
2022/06/23 07:46:29;;;;;;;12.70;8.50;;;;;;;;;;5090189;28;20043;-66
2022/06/23 07:48:55;;;;;;;12.95;8.55;;;;;;;;;;5075896;28;20048;-67
2022/06/23 07:51:22;;;;;;;10.73;7.32;;;;;;;;;;5097526;28;20048;-66
2022/06/23 07:53:50;;;;;;;11.15;7.85;;;;;;;;;;5094956;28;20498;-66
2022/06/23 07:56:19;;;;;;;11.85;7.38;;;;;;;;;;5096501;28;20072;-66
2022/06/23 07:58:47;;;;;;;11.45;6.68;;;;;;;;;;5084531;28;20139;-66
2022/06/23 08:01:29;;;;;;;13.93;7.65;;;;;;;;;;5086459;28;20436;-66
2022/06/23 08:04:14;;;;;;;11.35;7.63;;;;;;;;;;5089292;28;20044;-67
2022/06/23 08:06:40;;;;;;;8.65;6.60;;;;;;;;;;5098264;28;20050;-66
2022/06/23 08:09:13;;;;;;;8.57;6.85;;;;;;;;;;5087933;28;20189;-67
2022/06/23 08:14:29;;;;;;;8.25;6.45;;;;;;;;;;5088572;28;20074;-65
2022/06/23 08:16:55;;;;;;;8.43;6.55;;;;;;;;;;5088401;28;20405;-66
2022/06/23 08:19:24;;;;;;;9.10;7.15;;;;;;;;;;5102874;27;20602;-66
2022/06/23 08:21:56;;;;;;;10.80;7.15;;;;;;;;;;5097875;28;20047;-66
2022/06/23 08:24:23;;;;;;;9.98;6.72;;;;;;;;;;5091287;28;20477;-66
2022/06/23 08:26:52;;;;;;;11.77;7.13;;;;;;;;;;5090570;28;20032;-66
2022/06/23 08:29:20;;;;;;;10.45;7.55;;;;;;;;;;5084336;28;20036;-66
2022/06/23 08:31:47;;;;;;;11.55;7.45;;;;;;;;;;5050685;28;20041;-66
2022/06/23 08:34:13;;;;;;;11.20;7.28;;;;;;;;;;5085971;28;20040;-66
2022/06/23 08:36:44;;;;;;;12.27;6.88;;;;;;;;;;5096150;28;20043;-66
2022/06/23 08:39:22;;;;;;;11.52;7.47;;;;;;;;;;5092050;27;20135;-66
2022/06/23 08:41:57;;;;;;;8.55;7.45;;;;;;;;;;5090902;28;20123;-66
2022/06/23 08:44:26;;;;;;;8.60;5.95;;;;;;;;;;5095104;28;20497;-66
2022/06/23 08:46:52;;;;;;;11.32;7.70;;;;;;;;;;5090563;28;20036;-64
2022/06/23 08:49:33;;;;;;;8.93;5.65;;;;;;;;;;5096744;27;20032;-64
2022/06/23 08:52:10;;;;;;;8.65;6.20;;;;;;;;;;5079809;28;20038;-64
2022/06/23 08:54:49;;;;;;;9.30;5.82;;;;;;;;;;5092244;28;20032;-64
2022/06/23 08:57:18;;;;;;;10.63;5.97;;;;;;;;;;5105227;28;20604;-64
2022/06/23 08:59:48;;;;;;;7.90;6.28;;;;;;;;;;5090379;28;20081;-64
2022/06/23 09:02:23;;;;;;;11.90;6.22;;;;;;;;;;5093643;28;20041;-64
2022/06/23 09:04:55;;;;;;;9.00;6.03;;;;;;;;;;5089071;28;20044;-64
2022/06/23 09:07:33;;;;;;;8.50;6.47;;;;;;;;;;5088133;28;20032;-64
2022/06/23 09:10:08;;;;;;;9.02;5.93;;;;;;;;;;5084272;28;20416;-65
2022/06/23 09:12:43;;;;;;;9.27;5.90;;;;;;;;;;5099650;28;20044;-64
2022/06/23 09:15:12;;;;;;;6.15;4.90;;;;;;;;;;5089247;28;20031;-64
2022/06/23 09:17:57;;;;;;;13.52;6.60;;;;;;;;;;5079839;28;20047;-64
2022/06/23 09:20:42;;;;;;;8.85;6.05;;;;;;;;;;5089358;28;20066;-65
2022/06/23 09:23:18;;;;;;;9.68;6.50;;;;;;;;;;5097414;28;20481;-65
2022/06/23 09:25:44;;;;;;;8.68;6.68;;;;;;;;;;5089726;28;20536;-65
2022/06/23 09:28:19;;;;;;;10.20;7.03;;;;;;;;;;5103034;28;20077;-65
2022/06/23 09:30:57;;;;;;;10.70;5.82;;;;;;;;;;5093897;28;20081;-65
2022/06/23 09:33:29;;;;;;;7.85;5.82;;;;;;;;;;5089330;28;20056;-65
2022/06/23 09:36:04;;;;;;;7.63;5.82;;;;;;;;;;5080402;28;20035;-65
2022/06/23 09:38:39;;;;;;;7.30;5.32;;;;;;;;;;5105105;28;20040;-64
2022/06/23 09:41:13;;;;;;;8.65;5.78;;;;;;;;;;5085491;28;20029;-65
2022/06/23 09:44:15;;;;;;;7.57;4.70;;;;;;;;;;5095180;28;20098;-65
2022/06/23 09:46:47;;;;;;;8.07;5.10;;;;;;;;;;5045509;28;20037;-65
2022/06/23 09:49:16;;;;;;;7.07;4.90;;;;;;;;;;5080694;28;20509;-65
2022/06/23 09:51:48;;;;;;;6.82;4.57;;;;;;;;;;5079152;28;20051;-65
2022/06/23 09:54:34;;;;;;;7.20;4.90;;;;;;;;;;5092186;28;20089;-65
2022/06/23 09:57:19;;;;;;;9.02;5.68;;;;;;;;;;5082855;28;20047;-66
2022/06/23 10:00:03;;;;;;;8.63;5.53;;;;;;;;;;5083812;28;20041;-65
2022/06/23 10:02:42;;;;;;;6.47;4.75;;;;;;;;;;5101523;28;20035;-65
2022/06/23 10:05:31;;;;;;;15.07;4.43;;;;;;;;;;5097891;28;20061;-65
2022/06/23 10:08:16;;;;;;;6.88;4.68;;;;;;;;;;5082099;28;20056;-65
2022/06/23 10:10:54;;;;;;;6.15;4.07;;;;;;;;;;5089792;28;20115;-65
2022/06/23 10:13:26;;;;;;;4.90;3.85;;;;;;;;;;5089971;28;20036;-65
2022/06/23 10:16:04;;;;;;;7.80;4.63;;;;;;;;;;5100170;28;20427;-65
2022/06/23 10:18:39;;;;;;;5.88;3.90;;;;;;;;;;5093171;28;20037;-65
2022/06/23 10:21:24;;;;;;;7.00;4.28;;;;;;;;;;5092071;28;20044;-65
2022/06/23 10:23:50;;;;;;;8.27;4.07;;;;;;;;;;5089784;28;20047;-65
2022/06/23 10:26:24;;;;;;;5.38;3.25;;;;;;;;;;5082865;28;20032;-65
2022/06/23 10:29:05;;;;;;;7.00;4.00;;;;;;;;;;5090123;28;20059;-65
2022/06/23 10:31:34;;;;;;;7.13;3.67;;;;;;;;;;5082315;28;20051;-65
2022/06/23 10:34:39;;;;;;;6.70;2.83;;;;;;;;;;5092795;28;20549;-65
2022/06/23 10:37:05;;;;;;;5.43;3.05;;;;;;;;;;5067761;28;20475;-66
2022/06/23 10:39:45;;;;;;;5.88;3.17;;;;;;;;;;5081861;28;20040;-65
2022/06/23 10:42:17;;;;;;;4.78;3.03;;;;;;;;;;5071896;28;20048;-65
2022/06/23 10:44:56;;;;;;;5.13;3.30;;;;;;;;;;5102402;28;20066;-65
2022/06/23 10:47:25;;;;;;;6.07;3.00;;;;;;;;;;5103721;28;20450;-65
2022/06/23 10:50:11;;;;;;;5.32;3.30;;;;;;;;;;5088168;28;20118;-65
2022/06/23 10:52:37;;;;;;;4.35;2.55;;;;;;;;;;5089027;28;20130;-65
2022/06/23 10:55:19;;;;;;;4.65;3.15;;;;;;;;;;5088119;28;20040;-65
2022/06/23 10:57:45;;;;;;;7.35;2.70;;;;;;;;;;5076604;28;20079;-66
2022/06/23 11:00:15;;;;;;;5.47;3.20;;;;;;;;;;5098219;28;20049;-66
2022/06/23 11:02:41;;;;;;;4.93;3.22;;;;;;;;;;5097889;28;20046;-66
2022/06/23 11:05:21;;;;;;;4.13;2.60;;;;;;;;;;5086742;28;20093;-66
2022/06/23 11:07:53;;;;;;;5.28;2.65;;;;;;;;;;5087650;28;20056;-65
2022/06/23 11:10:25;;;;;;;4.63;3.10;;;;;;;;;;5085609;28;20046;-66
2022/06/23 11:13:11;;;;;;;5.35;3.15;;;;;;;;;;5104121;28;20062;-66
2022/06/23 11:15:40;;;;;;;9.90;3.35;;;;;;;;;;5091576;28;20205;-65
2022/06/23 11:18:06;;;;;;;4.05;2.50;;;;;;;;;;5095835;28;20108;-65
2022/06/23 11:20:51;;;;;;;4.43;2.78;;;;;;;;;;5081554;28;20501;-66
2022/06/23 11:23:27;;;;;;;5.75;3.70;;;;;;;;;;5076819;28;20064;-67
2022/06/23 11:26:04;;;;;;;5.70;2.83;;;;;;;;;;5088610;28;20459;-66
2022/06/23 11:28:30;;;;;;;3.28;2.45;;;;;;;;;;5095249;28;20040;-67
2022/06/23 11:30:56;;;;;;;6.03;3.20;;;;;;;;;;5093479;28;20493;-67
2022/06/23 11:33:22;;;;;;;4.63;2.90;;;;;;;;;;5086984;28;20046;-65
2022/06/23 11:36:03;;;;;;;8.30;3.45;;;;;;;;;;5094051;28;20032;-65
2022/06/23 11:38:45;;;;;;;4.57;3.20;;;;;;;;;;5105795;28;20046;-65
2022/06/23 11:41:23;;;;;;;5.40;2.63;;;;;;;;;;5085194;27;20386;-66
2022/06/23 11:44:22;;;;;;;3.53;2.58;;;;;;;;;;5088556;28;20035;-66
2022/06/23 11:47:10;;;;;;;4.18;3.38;;;;;;;;;;5061620;28;20577;-66
2022/06/23 11:49:55;;;;;;;7.00;3.45;;;;;;;;;;5078320;28;20039;-66
2022/06/23 11:52:21;;;;;;;5.05;3.05;;;;;;;;;;5092424;28;20045;-66
2022/06/23 11:55:02;;;;;;;4.88;3.25;;;;;;;;;;5091562;28;20036;-66
2022/06/23 11:57:37;;;;;;;4.68;3.15;;;;;;;;;;5089798;28;20104;-66
2022/06/23 12:00:03;;;;;;;5.85;3.65;;;;;;;;;;5082113;28;20426;-65
2022/06/23 12:02:32;;;;;;;3.13;2.63;;;;;;;;;;5103368;28;20111;-66
2022/06/23 12:05:18;;;;;;;4.97;3.47;;;;;;;;;;5100329;28;20067;-66
2022/06/23 12:07:52;;;;;;;3.80;3.30;;;;;;;;;;5100989;28;20471;-66
2022/06/23 12:10:20;;;;;;;4.90;3.28;;;;;;;;;;5086065;28;20266;-66
2022/06/23 12:12:48;;;;;;;4.10;3.13;;;;;;;;;;5086769;28;20040;-67
2022/06/23 12:15:21;;;;;;;5.32;3.42;;;;;;;;;;5079333;28;20410;-67
2022/06/23 12:17:53;;;;;;;6.25;2.80;;;;;;;;;;5104073;28;20055;-67
2022/06/23 12:20:38;;;;;;;5.72;3.75;;;;;;;;;;5096094;28;20036;-67
2022/06/23 12:23:04;;;;;;;7.38;3.50;;;;;;;;;;5095517;28;20489;-67
2022/06/23 12:25:40;;;;;;;5.20;2.90;;;;;;;;;;5091689;28;20195;-66
2022/06/23 12:28:14;;;;;;;8.15;3.72;;;;;;;;;;5090951;28;20059;-66
2022/06/23 12:30:44;;;;;;;4.63;3.67;;;;;;;;;;5097507;28;20556;-66
2022/06/23 12:33:19;;;;;;;4.70;2.80;;;;;;;;;;5104253;28;20141;-66
2022/06/23 12:35:54;;;;;;;5.65;3.78;;;;;;;;;;5094437;28;20031;-67
2022/06/23 12:38:27;;;;;;;7.57;3.15;;;;;;;;;;5091370;28;20040;-66
2022/06/23 12:40:59;;;;;;;4.80;3.35;;;;;;;;;;5088491;28;20066;-66
2022/06/23 12:43:29;;;;;;;4.30;3.75;;;;;;;;;;5089782;28;20028;-67
2022/06/23 12:46:01;;;;;;;4.93;3.13;;;;;;;;;;5095704;28;20259;-67
2022/06/23 12:48:27;;;;;;;4.82;3.85;;;;;;;;;;5100015;28;20770;-66
2022/06/23 12:51:08;;;;;;;4.50;3.53;;;;;;;;;;5083893;28;20046;-66
2022/06/23 12:54:00;;;;;;;5.70;3.35;;;;;;;;;;5078613;28;20097;-66
2022/06/23 12:56:41;;;;;;;4.88;3.33;;;;;;;;;;5092299;28;20078;-67
2022/06/23 12:59:16;;;;;;;7.88;3.97;;;;;;;;;;5096292;28;20044;-67
2022/06/23 13:01:42;;;;;;;6.32;3.72;;;;;;;;;;5098243;28;20032;-66
2022/06/23 13:04:23;;;;;;;5.28;3.20;;;;;;;;;;5090590;28;20047;-67
2022/06/23 13:07:02;;;;;;;5.10;3.42;;;;;;;;;;5093397;28;20105;-67
2022/06/23 13:09:42;;;;;;;4.75;2.90;;;;;;;;;;5087716;28;20389;-67
2022/06/23 13:12:15;;;;;;;5.65;3.13;;;;;;;;;;5101553;28;20486;-67
2022/06/23 13:14:51;;;;;;;6.00;3.35;;;;;;;;;;5094960;28;20036;-67
2022/06/23 13:17:22;;;;;;;5.93;3.30;;;;;;;;;;5094768;28;20529;-67
2022/06/23 13:19:57;;;;;;;5.70;3.53;;;;;;;;;;5090655;28;20036;-67
2022/06/23 13:22:23;;;;;;;7.18;3.53;;;;;;;;;;5080432;28;20032;-67
2022/06/23 13:24:54;;;;;;;4.80;3.30;;;;;;;;;;5093387;28;20469;-67
2022/06/23 13:27:21;;;;;;;4.90;2.92;;;;;;;;;;5096046;28;20044;-67
2022/06/23 13:29:52;;;;;;;5.32;2.42;;;;;;;;;;5086679;28;20524;-67
2022/06/23 13:32:31;;;;;;;5.95;3.08;;;;;;;;;;5088834;28;20035;-67
2022/06/23 13:34:57;;;;;;;5.28;3.20;;;;;;;;;;5076840;28;20106;-67
2022/06/23 13:37:30;;;;;;;6.28;3.10;;;;;;;;;;5075772;28;20044;-67
2022/06/23 13:40:17;;;;;;;6.25;2.90;;;;;;;;;;5097732;28;20455;-68
2022/06/23 13:43:03;;;;;;;4.95;3.28;;;;;;;;;;5065818;28;20495;-67
2022/06/23 13:45:30;;;;;;;8.07;3.05;;;;;;;;;;5079084;28;20164;-67
2022/06/23 13:48:05;;;;;;;3.83;2.78;;;;;;;;;;5090166;28;20139;-67
2022/06/23 13:50:39;;;;;;;4.45;2.63;;;;;;;;;;5072201;28;20083;-67
2022/06/23 13:53:05;;;;;;;4.05;3.00;;;;;;;;;;5085427;28;20385;-67
2022/06/23 13:55:35;;;;;;;5.63;3.08;;;;;;;;;;5096211;28;20054;-67
2022/06/23 13:58:17;;;;;;;8.25;2.78;;;;;;;;;;5081787;28;20055;-67
2022/06/23 14:00:49;;;;;;;7.45;2.80;;;;;;;;;;5090554;28;20452;-67
2022/06/23 14:03:20;;;;;;;3.50;2.85;;;;;;;;;;5079296;28;20553;-67
2022/06/23 14:05:52;;;;;;;4.75;2.83;;;;;;;;;;5095470;28;20050;-67
2022/06/23 14:08:27;;;;;;;9.68;3.15;;;;;;;;;;5091553;28;20157;-66
2022/06/23 14:11:18;;;;;;;5.72;2.70;;;;;;;;;;5083115;28;20437;-67
2022/06/23 14:13:57;;;;;;;4.60;2.72;;;;;;;;;;5076774;28;20485;-67
2022/06/23 14:16:46;;;;;;;4.72;2.67;;;;;;;;;;5091504;28;20394;-67
2022/06/23 14:19:18;;;;;;;5.50;2.78;;;;;;;;;;5079365;28;20051;-67
2022/06/23 14:21:51;;;;;;;6.53;3.05;;;;;;;;;;5086928;28;20259;-67
2022/06/23 14:24:17;;;;;;;;;;;;;;;;;;5087977;28;20040;-67
2022/06/23 14:26:54;;;;;;;3.60;3.00;;;;;;;;;;5082576;28;19928;-67
2022/06/23 14:29:26;;;;;;;5.60;3.40;;;;;;;;;;5089906;28;20625;-67
2022/06/23 14:32:04;;;;;;;6.22;2.90;;;;;;;;;;5096670;28;20048;-67
2022/06/23 14:34:49;;;;;;;7.47;3.17;;;;;;;;;;5083465;28;20036;-66
2022/06/23 14:37:20;;;;;;;3.53;2.58;;;;;;;;;;5091121;28;20277;-67
2022/06/23 14:39:51;;;;;;;4.35;2.95;;;;;;;;;;5087345;28;20032;-67
2022/06/23 14:42:21;;;;;;;5.68;3.00;;;;;;;;;;5085219;28;20565;-67
2022/06/23 14:44:51;;;;;;;6.43;3.25;;;;;;;;;;5104355;28;20077;-67
2022/06/23 14:47:36;;;;;;;6.75;2.78;;;;;;;;;;5094386;28;20123;-67
2022/06/23 14:50:13;;;;;;;5.55;2.75;;;;;;;;;;5083521;28;20482;-67
2022/06/23 14:52:59;;;;;;;5.80;2.63;;;;;;;;;;5084707;28;20035;-67
2022/06/23 14:55:45;;;;;;;11.00;3.92;;;;;;;;;;5095919;28;20035;-67
2022/06/23 14:58:27;;;;;;;5.35;3.08;;;;;;;;;;5089648;28;20076;-67
2022/06/23 15:01:08;;;;;;;5.63;3.00;;;;;;;;;;5096325;28;20457;-68
2022/06/23 15:03:52;;;;;;;4.45;2.85;;;;;;;;;;5087820;28;20510;-67
2022/06/23 15:06:34;;;;;;;7.90;3.40;;;;;;;;;;5087116;28;20059;-67
2022/06/23 15:09:18;;;;;;;4.63;3.90;;;;;;;;;;5086677;28;20048;-67
2022/06/23 15:11:54;;;;;;;4.45;2.50;;;;;;;;;;5098321;28;20105;-67
2022/06/23 15:14:32;;;;;;;5.75;3.13;;;;;;;;;;5082747;28;20071;-67
2022/06/23 15:17:19;;;;;;;5.97;3.70;;;;;;;;;;5089986;28;20354;-67
2022/06/23 15:19:48;;;;;;;5.47;2.78;;;;;;;;;;5064398;28;20330;-67
2022/06/23 15:25:15;;;;;;;5.60;3.25;;;;;;;;;;5084632;28;20480;-67
2022/06/23 15:27:45;;;;;;;9.18;3.22;;;;;;;;;;5097233;28;20048;-67
2022/06/23 15:30:17;;;;;;;5.65;3.38;;;;;;;;;;5097456;28;20122;-67